createdAt,value
2022-08-23T00:01:17.410Z,87.32
2022-08-23T00:10:54.338Z,88.16
2022-08-23T00:20:31.327Z,89.05
2022-08-23T00:30:08.176Z,89.04
2022-08-23T00:39:44.905Z,90.2
2022-08-23T00:49:21.636Z,90.74
2022-08-23T00:58:58.365Z,91.37
2022-08-23T01:08:35.443Z,92.39
2022-08-23T01:18:12.536Z,92.14
2022-08-23T01:27:49.168Z,92.82
2022-08-23T01:47:03.235Z,94.06
2022-08-23T01:56:40.071Z,95.29
2022-08-23T02:06:17.193Z,94.91
2022-08-23T02:25:30.545Z,95.21
2022-08-23T02:35:07.288Z,96.09
2022-08-23T02:44:44.102Z,96.08
2022-08-23T02:54:21.098Z,96.02
2022-08-23T03:03:57.687Z,96.34
2022-08-23T03:13:34.215Z,96.45
2022-08-23T03:23:10.866Z,96.75
2022-08-23T03:32:48.824Z,96.11
2022-08-23T03:42:25.863Z,96.53
2022-08-23T04:01:37.892Z,96.65
2022-08-23T04:11:14.993Z,96.65
2022-08-23T04:20:52.047Z,96.8
2022-08-23T04:30:28.977Z,96.57
2022-08-23T04:40:06.534Z,96.09
2022-08-23T04:49:44.005Z,95.28
2022-08-23T04:59:20.829Z,95.11
2022-08-23T05:18:35.197Z,94.44
2022-08-23T05:28:12.366Z,94.56
2022-08-23T05:37:49.984Z,95.01
2022-08-23T05:47:28.035Z,93.48
2022-08-23T05:57:06.008Z,91.4
2022-08-23T06:06:43.908Z,89.57
2022-08-23T06:16:21.585Z,88.64
2022-08-23T06:25:59.497Z,86.31
2022-08-23T06:35:40.007Z,84.81
2022-08-23T06:45:15.023Z,83.06
2022-08-23T06:54:53.224Z,80.42
2022-08-23T07:04:30.779Z,78.21
2022-08-23T07:23:46.680Z,73.77
2022-08-23T07:33:24.386Z,72.7
2022-08-23T07:43:02.412Z,70.46
2022-08-23T07:52:40.235Z,68.84
2022-08-23T08:02:18.004Z,67.25
2022-08-23T08:11:56.597Z,65.4
2022-08-23T08:21:34.762Z,64.34
2022-08-23T08:31:13.283Z,62.51
2022-08-23T08:40:51.610Z,62.24
2022-08-23T08:50:30.071Z,60.55
2022-08-23T09:00:08.435Z,60.79
2022-08-23T09:09:47.178Z,58.08
2022-08-23T09:29:04.177Z,56.43
2022-08-23T09:38:43.379Z,55.36
2022-08-23T09:48:21.342Z,51.66
2022-08-23T09:58:19.924Z,47.46
2022-08-23T10:08:10.616Z,45.19
2022-08-23T10:17:53.580Z,41.79
2022-08-23T10:27:38.167Z,42.33
2022-08-23T10:37:08.242Z,42
2022-08-23T10:46:43.629Z,42.2
2022-08-23T10:56:44.394Z,39.65
2022-08-23T11:06:23.463Z,38.99
2022-08-23T11:16:02.981Z,34.92
2022-08-23T11:25:45.282Z,32.87
2022-08-23T11:35:27.325Z,34.32
2022-08-23T11:44:55.294Z,37.23
2022-08-23T11:54:45.306Z,34
2022-08-23T12:04:28.382Z,35.49
2022-08-23T12:14:15.062Z,31.58
2022-08-23T12:23:55.563Z,33.71
2022-08-23T12:33:34.999Z,34.83
2022-08-23T12:43:17.476Z,34.07
2022-08-23T12:52:55.381Z,32.64
2022-08-23T13:02:35.025Z,31.32
2022-08-23T13:21:56.376Z,28.47
2022-08-23T13:31:34.966Z,28.83
2022-08-23T13:41:11.544Z,31.54
2022-08-23T13:50:48.259Z,31.34
2022-08-23T14:00:22.657Z,30.41
2022-08-23T14:09:57.693Z,32.83
2022-08-23T14:20:32.732Z,32.79
2022-08-23T14:29:27.801Z,36.43
2022-08-23T14:39:04.173Z,31.96
2022-08-23T14:48:48.477Z,33.2
2022-08-23T14:58:24.437Z,32.77
2022-08-23T15:07:57.859Z,32.57
2022-08-23T15:17:25.150Z,35.43
2022-08-23T15:26:55.002Z,37.1
2022-08-23T15:46:03.591Z,35.56
2022-08-23T15:55:36.445Z,38.06
2022-08-23T16:05:13.171Z,40.06
2022-08-23T16:14:47.320Z,40.43
2022-08-23T16:24:22.499Z,41.8
2022-08-23T16:33:57.517Z,43.84
2022-08-23T16:43:32.780Z,44.54
2022-08-23T16:53:08.614Z,45.18
2022-08-23T17:12:21.663Z,46.82
2022-08-23T17:21:58.484Z,47.97
2022-08-23T17:31:37.504Z,49.5
2022-08-23T17:41:12.742Z,51.39
2022-08-23T17:50:49.262Z,52.98
2022-08-23T18:00:26.194Z,54.15
2022-08-23T18:10:02.388Z,56.4
2022-08-23T18:19:38.743Z,59.46
2022-08-23T18:29:15.401Z,60.65
2022-08-23T18:38:51.910Z,62.58
2022-08-23T18:48:28.215Z,65.12
2022-08-23T19:07:41.548Z,68.38
2022-08-23T19:17:18.120Z,70
2022-08-23T19:26:55.194Z,70.59
2022-08-23T19:36:45.641Z,71.57
2022-08-23T19:46:08.884Z,73.24
2022-08-23T19:55:45.793Z,74.68
2022-08-23T20:05:22.624Z,75.2
2022-08-23T20:24:51.213Z,76.53
2022-08-23T20:34:13.267Z,77.59
2022-08-23T20:43:49.964Z,79.05
2022-08-23T20:53:26.887Z,79.94
2022-08-23T21:03:04.111Z,80.19
2022-08-23T21:12:40.445Z,81.53
2022-08-23T21:22:16.824Z,82.63
2022-08-23T21:31:53.646Z,83.31
2022-08-23T21:41:30.433Z,83.5
2022-08-23T21:51:07.677Z,84.58
2022-08-23T22:00:44.684Z,85.44
2022-08-23T22:10:20.919Z,85.86
2022-08-23T22:19:57.879Z,86.34
2022-08-23T22:29:35.024Z,86.22
2022-08-23T22:39:11.951Z,88.06
2022-08-23T22:48:48.915Z,88.26
2022-08-23T23:08:03.313Z,88.99
2022-08-23T23:17:40.123Z,89.88
2022-08-23T23:27:16.846Z,90.25
2022-08-23T23:36:54.002Z,90.59
2022-08-23T23:46:31.365Z,90.66
2022-08-23T23:56:08.720Z,91.27
